Time;durP1;ratioP1;P1;durP2;ratioP2;P2;SDS_P1;SDS_P2;PMS_P1;PMS_P2;Temp;Humidity;BMP_temperature;BMP_pressure;BME280_temperature;BME280_humidity;BME280_pressure;Samples;Min_cycle;Max_cycle;Signal;HPM_P1;HPM_P2
2022/05/13 03:01:19;;;;;;;1.30;1.20;;;27.10;46.80;;;;;;5557086;23;46349;-68
2022/05/13 03:03:46;;;;;;;1.20;1.10;;;27.10;46.80;;;;;;4953653;28;46425;-67
2022/05/13 03:06:12;;;;;;;1.45;1.35;;;27.10;46.80;;;;;;4957563;28;45396;-69
2022/05/13 03:08:37;;;;;;;1.42;1.33;;;27.10;46.80;;;;;;4976344;28;44676;-68
2022/05/13 03:11:03;;;;;;;1.50;1.10;;;27.10;46.90;;;;;;4974637;28;45152;-68
2022/05/13 03:13:29;;;;;;;1.08;0.98;;;27.10;46.90;;;;;;4971460;28;46840;-69
2022/05/13 03:15:55;;;;;;;1.27;1.17;;;27.10;46.80;;;;;;4964237;28;45235;-68
2022/05/13 03:18:20;;;;;;;1.75;1.42;;;27.10;46.80;;;;;;4967892;28;44811;-68
2022/05/13 03:20:46;;;;;;;1.45;1.35;;;27.10;46.90;;;;;;4971278;28;45442;-68
2022/05/13 03:23:12;;;;;;;1.27;1.17;;;27.10;46.90;;;;;;4988126;28;46514;-68
2022/05/13 03:25:37;;;;;;;1.27;1.20;;;27.10;46.80;;;;;;4971325;28;45645;-68
2022/05/13 03:28:03;;;;;;;1.25;1.15;;;27.10;46.90;;;;;;4967611;28;45227;-68
2022/05/13 03:30:29;;;;;;;1.15;1.13;;;27.00;46.90;;;;;;4938573;28;45752;-68
2022/05/13 03:32:54;;;;;;;1.10;1.00;;;27.00;46.90;;;;;;4989708;28;45849;-68
2022/05/13 03:35:20;;;;;;;2.65;1.45;;;27.10;46.90;;;;;;4971951;28;45014;-68
2022/05/13 03:37:46;;;;;;;1.38;1.27;;;27.10;46.90;;;;;;4974614;28;45770;-67
2022/05/13 03:40:13;;;;;;;1.30;1.17;;;27.10;46.90;;;;;;4945131;28;45424;-68
2022/05/13 03:42:38;;;;;;;1.58;1.48;;;27.10;46.90;;;;;;4967856;28;46490;-67
2022/05/13 03:45:05;;;;;;;1.23;1.13;;;27.10;46.90;;;;;;4970192;28;45404;-68
2022/05/13 03:47:31;;;;;;;1.30;1.20;;;27.10;46.90;;;;;;4954011;28;45224;-68
2022/05/13 03:49:56;;;;;;;1.23;1.13;;;27.10;46.90;;;;;;4977457;28;45077;-68
2022/05/13 03:52:22;;;;;;;1.30;1.20;;;27.10;46.90;;;;;;4975457;28;45497;-68
2022/05/13 03:54:47;;;;;;;1.45;1.20;;;27.10;46.90;;;;;;4970636;28;44953;-68
2022/05/13 03:57:13;;;;;;;1.13;1.02;;;27.10;46.90;;;;;;4986696;28;45506;-67
2022/05/13 03:59:40;;;;;;;1.30;1.20;;;27.00;46.90;;;;;;4972951;28;45338;-67
2022/05/13 04:02:05;;;;;;;1.20;1.10;;;27.00;47.00;;;;;;4974415;28;46239;-68
2022/05/13 04:08:56;;;;;;;1.38;1.27;;;27.10;47.00;;;;;;4976741;28;45280;-67
2022/05/13 04:10:05;;;;;;;1.10;1.00;;;27.00;46.90;;;;;;4989106;28;45354;-67
2022/05/13 04:17:59;;;;;;;1.50;1.40;;;27.00;46.90;;;;;;4974546;28;45584;-68
2022/05/13 04:20:25;;;;;;;2.03;1.30;;;27.00;46.90;;;;;;4973982;28;44973;-68
2022/05/13 04:22:50;;;;;;;1.38;1.27;;;27.00;47.00;;;;;;4996463;28;45540;-68
2022/05/13 04:25:17;;;;;;;1.10;1.00;;;27.00;47.00;;;;;;4991475;28;45301;-68
2022/05/13 04:27:43;;;;;;;1.25;1.15;;;27.00;46.90;;;;;;4967341;28;45167;-69
2022/05/13 04:30:09;;;;;;;1.27;1.17;;;27.00;46.90;;;;;;4972195;28;45179;-68
2022/05/13 04:32:35;;;;;;;1.40;1.20;;;27.00;47.00;;;;;;4961656;28;48267;-69
2022/05/13 04:35:00;;;;;;;1.30;1.20;;;27.00;47.00;;;;;;4960372;28;44701;-68
2022/05/13 04:37:26;;;;;;;1.08;1.02;;;27.00;47.00;;;;;;4963773;28;45222;-68
2022/05/13 04:39:53;;;;;;;1.35;1.23;;;27.00;46.90;;;;;;4970347;28;45120;-69
2022/05/13 04:45:05;;;;;;;1.23;1.13;;;27.00;47.00;;;;;;4980885;28;44845;-69
2022/05/13 04:50:15;;;;;;;1.30;1.20;;;27.00;47.00;;;;;;4976652;28;45455;-68
2022/05/13 04:52:41;;;;;;;1.40;1.20;;;27.00;47.00;;;;;;4984667;28;45291;-69
2022/05/13 04:55:07;;;;;;;1.38;1.27;;;27.00;47.00;;;;;;4953769;28;45761;-69
2022/05/13 04:57:32;;;;;;;1.17;1.08;;;27.00;47.00;;;;;;4975488;28;45831;-68
2022/05/13 04:59:58;;;;;;;1.40;1.30;;;27.00;47.00;;;;;;4987812;28;45527;-68
2022/05/13 05:02:23;;;;;;;1.50;1.40;;;26.90;46.90;;;;;;4986285;28;46171;-67
2022/05/13 05:04:49;;;;;;;1.42;1.20;;;27.00;47.00;;;;;;4971873;28;45445;-68
2022/05/13 05:07:15;;;;;;;1.30;1.20;;;27.00;47.00;;;;;;4959468;28;44911;-68
2022/05/13 05:09:40;;;;;;;1.52;1.42;;;27.00;47.10;;;;;;4972292;28;45389;-67
2022/05/13 05:12:08;;;;;;;1.30;1.23;;;27.00;47.00;;;;;;4952477;28;47330;-68
2022/05/13 05:14:33;;;;;;;1.33;1.23;;;27.00;47.00;;;;;;4956557;28;45183;-69
2022/05/13 05:16:59;;;;;;;1.52;1.42;;;27.00;47.00;;;;;;4972744;28;45229;-68
2022/05/13 05:19:24;;;;;;;1.13;1.13;;;27.00;47.00;;;;;;4969029;28;45487;-68
2022/05/13 05:21:51;;;;;;;1.20;1.10;;;27.00;47.00;;;;;;4964401;28;48065;-68
2022/05/13 05:24:16;;;;;;;1.00;1.00;;;27.00;47.00;;;;;;4973914;28;45300;-69
2022/05/13 05:26:42;;;;;;;1.73;1.38;;;26.90;46.90;;;;;;4973025;28;44712;-68
2022/05/13 05:29:08;;;;;;;1.30;1.20;;;27.00;47.00;;;;;;4972641;28;45322;-68
2022/05/13 05:31:34;;;;;;;1.48;1.38;;;27.00;47.00;;;;;;4968103;28;45208;-68
2022/05/13 05:33:59;;;;;;;1.35;1.25;;;27.00;46.90;;;;;;4954502;28;45135;-67
2022/05/13 05:36:25;;;;;;;1.35;1.25;;;27.00;46.90;;;;;;4972625;28;45503;-67
2022/05/13 05:38:50;;;;;;;1.42;1.33;;;27.00;46.90;;;;;;4977501;28;45175;-68
2022/05/13 05:41:16;;;;;;;1.30;1.20;;;27.00;46.90;;;;;;4970757;28;46321;-68
2022/05/13 05:43:43;;;;;;;1.25;1.15;;;27.00;46.90;;;;;;4957301;28;45319;-68
2022/05/13 05:46:08;;;;;;;1.95;1.33;;;27.00;46.80;;;;;;4987668;28;44762;-67
2022/05/13 05:48:34;;;;;;;1.45;1.30;;;27.00;46.90;;;;;;4983398;28;45156;-68
2022/05/13 05:50:59;;;;;;;1.10;1.00;;;27.00;46.80;;;;;;4957155;28;47156;-68
2022/05/13 05:58:57;;;;;;;1.48;1.38;;;27.00;46.70;;;;;;4971699;28;45522;-67
2022/05/13 06:01:22;;;;;;;1.40;1.30;;;27.00;46.70;;;;;;4950193;28;46898;-68
2022/05/13 06:03:48;;;;;;;1.30;1.20;;;27.00;46.70;;;;;;4969261;28;44780;-68
2022/05/13 06:06:13;;;;;;;1.65;1.40;;;27.00;46.70;;;;;;4938355;28;45440;-69
2022/05/13 06:08:40;;;;;;;2.15;1.45;;;27.10;46.50;;;;;;4978778;28;45663;-71
2022/05/13 06:11:06;;;;;;;2.47;1.80;;;27.00;45.70;;;;;;4968673;28;45489;-69
2022/05/13 06:13:31;;;;;;;3.83;1.67;;;27.00;45.20;;;;;;4984139;28;45217;-68
2022/05/13 06:15:57;;;;;;;2.53;1.30;;;26.90;45.00;;;;;;4974957;28;45379;-69
2022/05/13 06:18:23;;;;;;;2.60;1.40;;;26.80;45.40;;;;;;4971096;28;44691;-68
2022/05/13 06:20:48;;;;;;;4.38;1.80;;;26.70;44.60;;;;;;4970205;28;45277;-68
2022/05/13 06:23:14;;;;;;;4.55;1.20;;;26.60;44.60;;;;;;4973232;28;45229;-69
2022/05/13 06:25:39;;;;;;;4.38;1.90;;;26.50;44.40;;;;;;4973183;28;45290;-73
2022/05/13 06:28:05;;;;;;;5.80;1.30;;;26.50;44.20;;;;;;4974574;28;44858;-68
2022/05/13 06:30:33;;;;;;;5.95;1.38;;;26.40;43.90;;;;;;4956601;28;45366;-67
2022/05/13 06:32:59;;;;;;;3.80;1.20;;;26.20;43.90;;;;;;4983809;28;45104;-67
2022/05/13 06:35:25;;;;;;;4.07;1.10;;;26.20;44.00;;;;;;4965792;28;45079;-68
2022/05/13 06:37:51;;;;;;;3.03;1.65;;;26.20;44.00;;;;;;4962972;28;44922;-68
2022/05/13 06:40:17;;;;;;;4.40;1.17;;;26.20;44.10;;;;;;4969190;28;45367;-68
2022/05/13 06:42:42;;;;;;;3.00;1.00;;;26.30;44.20;;;;;;4970561;28;45073;-69
2022/05/13 06:45:08;;;;;;;4.38;1.52;;;26.30;44.00;;;;;;4949300;28;45248;-67
2022/05/13 06:47:34;;;;;;;1.75;0.82;;;26.40;43.90;;;;;;4952033;28;46202;-67
2022/05/13 06:50:03;;;;;;;2.17;1.10;;;26.40;43.90;;;;;;4970949;28;46173;-67
2022/05/13 06:52:28;;;;;;;3.55;1.10;;;26.40;43.90;;;;;;4974649;28;45319;-67
2022/05/13 06:54:54;;;;;;;2.20;1.02;;;26.50;44.20;;;;;;4973241;28;45395;-67
2022/05/13 06:57:20;;;;;;;2.25;1.02;;;26.50;44.10;;;;;;4965618;28;45192;-67
2022/05/13 06:59:45;;;;;;;3.50;1.10;;;26.50;44.10;;;;;;4973844;28;46371;-67
2022/05/13 07:02:11;;;;;;;2.38;0.85;;;26.60;44.10;;;;;;4983886;28;45001;-67
2022/05/13 07:04:36;;;;;;;2.10;0.98;;;26.60;44.10;;;;;;4972198;28;45271;-68
2022/05/13 07:07:02;;;;;;;2.38;0.98;;;26.60;44.10;;;;;;4971118;28;45222;-67
2022/05/13 07:09:28;;;;;;;1.73;0.88;;;26.60;44.00;;;;;;4966740;28;45059;-68
2022/05/13 07:11:54;;;;;;;2.17;0.98;;;26.70;44.10;;;;;;4964865;28;45300;-69
2022/05/13 07:14:20;;;;;;;2.50;1.00;;;26.70;44.00;;;;;;4966880;28;45434;-67
2022/05/13 07:16:45;;;;;;;4.28;1.02;;;26.80;44.20;;;;;;4963116;28;45699;-70
2022/05/13 07:19:11;;;;;;;4.07;0.95;;;26.80;44.10;;;;;;4968223;28;45165;-68
2022/05/13 07:21:37;;;;;;;2.10;1.00;;;26.80;44.10;;;;;;4960213;28;45614;-68
2022/05/13 07:24:02;;;;;;;2.05;0.90;;;26.80;44.10;;;;;;4969764;28;45103;-69
2022/05/13 07:26:28;;;;;;;3.78;0.93;;;26.90;44.20;;;;;;4982579;28;44746;-67
2022/05/13 07:28:55;;;;;;;1.30;0.77;;;26.90;44.20;;;;;;4966242;28;47375;-70
2022/05/13 07:31:20;;;;;;;2.42;0.95;;;26.90;44.10;;;;;;4965476;28;45267;-68
2022/05/13 07:33:46;;;;;;;2.25;0.80;;;26.90;44.20;;;;;;4967708;28;45297;-71
2022/05/13 07:36:11;;;;;;;1.65;0.90;;;26.90;44.10;;;;;;4953998;28;45365;-69
2022/05/13 07:41:16;;;;;;;2.05;0.98;;;26.90;44.10;;;;;;4983393;28;45517;-66
2022/05/13 07:41:25;;;;;;;2.65;1.10;;;26.90;44.10;;;;;;4972764;28;45163;-66
2022/05/13 07:43:50;;;;;;;3.78;0.90;;;27.00;44.10;;;;;;4970838;28;45247;-69
2022/05/13 07:46:16;;;;;;;2.28;1.00;;;27.00;44.10;;;;;;4967700;28;45330;-68
2022/05/13 07:48:41;;;;;;;1.65;1.02;;;27.00;44.20;;;;;;4989515;28;45585;-66
2022/05/13 07:51:08;;;;;;;3.60;1.10;;;27.00;44.20;;;;;;4971593;28;45320;-67
2022/05/13 07:53:33;;;;;;;3.90;0.80;;;27.10;44.20;;;;;;4964649;28;44823;-66
2022/05/13 07:55:59;;;;;;;2.80;1.00;;;27.10;44.10;;;;;;4969818;28;45214;-70
2022/05/13 07:58:24;;;;;;;1.65;1.05;;;27.20;44.20;;;;;;4946895;28;45425;-66
2022/05/13 08:00:50;;;;;;;1.90;0.90;;;27.10;44.00;;;;;;4984677;28;45914;-67
2022/05/13 08:03:16;;;;;;;1.48;0.77;;;27.20;44.20;;;;;;4988864;28;46222;-68
2022/05/13 08:05:48;;;;;;;2.13;1.05;;;27.20;44.10;;;;;;4965579;28;45117;-64
2022/05/13 08:08:26;;;;;;;1.80;0.80;;;27.20;44.00;;;;;;4967955;28;45645;-67
2022/05/13 08:10:54;;;;;;;3.28;1.13;;;27.20;44.00;;;;;;4978587;28;45531;-67
2022/05/13 08:13:20;;;;;;;2.33;1.02;;;27.20;44.00;;;;;;4972968;28;45253;-66
2022/05/13 08:15:46;;;;;;;2.60;0.90;;;27.20;44.00;;;;;;4960553;28;45242;-68
2022/05/13 08:18:12;;;;;;;1.52;1.00;;;27.30;44.00;;;;;;4967794;28;45496;-65
2022/05/13 08:20:37;;;;;;;1.17;0.88;;;27.30;43.90;;;;;;4969598;28;44898;-66
2022/05/13 08:23:03;;;;;;;1.70;1.20;;;27.30;43.90;;;;;;4970023;28;45478;-65
2022/05/13 08:25:29;;;;;;;1.45;0.82;;;27.30;43.90;;;;;;4971299;28;45241;-67
2022/05/13 08:27:54;;;;;;;1.58;0.80;;;27.40;44.00;;;;;;4980980;28;46278;-69
2022/05/13 08:30:20;;;;;;;2.78;0.77;;;27.40;44.00;;;;;;4988238;28;45484;-66
2022/05/13 08:32:46;;;;;;;1.95;0.95;;;27.40;43.90;;;;;;4971339;28;45138;-64
2022/05/13 08:35:12;;;;;;;2.08;0.95;;;27.40;43.90;;;;;;4965995;28;45246;-68
2022/05/13 08:37:57;;;;;;;1.65;1.00;;;27.40;43.90;;;;;;4953518;28;45524;-71
2022/05/13 08:40:41;;;;;;;2.00;0.85;;;27.40;43.60;;;;;;4979542;28;45187;-67
2022/05/13 08:43:13;;;;;;;4.68;0.98;;;27.50;43.90;;;;;;4987202;28;45538;-65
2022/05/13 08:45:40;;;;;;;2.20;1.20;;;27.50;43.80;;;;;;4966071;28;45231;-72
2022/05/13 08:48:08;;;;;;;1.40;0.90;;;27.50;43.80;;;;;;4970740;28;45910;-66
2022/05/13 08:50:41;;;;;;;2.05;1.00;;;27.50;43.80;;;;;;4955481;28;45356;-67
2022/05/13 08:53:25;;;;;;;;;;;27.50;43.70;;;;;;4960222;28;44801;-67
2022/05/13 08:55:56;;;;;;;2.00;0.93;;;27.60;43.60;;;;;;4985103;28;45259;-66
2022/05/13 08:58:25;;;;;;;1.23;0.75;;;27.60;43.70;;;;;;4953046;28;46367;-66
2022/05/13 09:00:53;;;;;;;2.55;1.02;;;27.60;43.70;;;;;;4963847;28;45284;-66
2022/05/13 09:03:31;;;;;;;2.47;0.73;;;27.70;43.70;;;;;;4955795;28;45537;-68
2022/05/13 09:06:00;;;;;;;3.42;0.90;;;27.70;43.70;;;;;;4979403;28;45479;-65
2022/05/13 09:08:26;;;;;;;1.02;0.70;;;27.70;43.70;;;;;;4936517;28;46722;-65
2022/05/13 09:11:10;;;;;;;1.10;0.65;;;27.70;43.70;;;;;;4964230;28;46174;-66
2022/05/13 09:14:18;;;;;;;3.50;1.20;;;27.70;43.70;;;;;;4950224;28;45641;-66
2022/05/13 09:17:11;;;;;;;1.60;0.98;;;27.70;43.60;;;;;;4941683;28;45099;-67
2022/05/13 09:19:40;;;;;;;2.20;1.00;;;27.80;43.70;;;;;;4970463;28;46379;-71
2022/05/13 09:22:07;;;;;;;2.70;1.17;;;27.80;43.80;;;;;;4956801;28;45630;-67
2022/05/13 09:24:32;;;;;;;1.75;0.80;;;27.80;43.70;;;;;;4967903;28;44826;-69
2022/05/13 09:26:58;;;;;;;3.40;0.90;;;27.80;43.70;;;;;;4971800;28;45380;-67
2022/05/13 09:29:24;;;;;;;1.00;0.90;;;27.80;43.70;;;;;;4947977;28;45454;-66
2022/05/13 09:32:00;;;;;;;2.72;1.15;;;27.80;43.70;;;;;;4927238;28;45354;-68
2022/05/13 09:34:29;;;;;;;1.70;0.95;;;27.80;43.60;;;;;;4970027;28;45375;-66
2022/05/13 09:37:03;;;;;;;0.98;0.77;;;27.90;43.80;;;;;;4961741;28;45557;-70
2022/05/13 09:39:38;;;;;;;1.73;0.80;;;27.90;43.70;;;;;;4963816;28;45410;-68
2022/05/13 09:42:27;;;;;;;1.13;0.60;;;27.90;43.70;;;;;;4950121;28;45530;-68
2022/05/13 09:45:14;;;;;;;2.40;0.98;;;27.90;43.60;;;;;;4971003;28;45345;-69
2022/05/13 09:47:40;;;;;;;3.45;1.00;;;27.90;43.50;;;;;;4966113;28;45186;-68
2022/05/13 09:50:27;;;;;;;1.70;0.80;;;27.90;43.70;;;;;;4965387;28;45379;-69
2022/05/13 09:52:52;;;;;;;1.70;0.80;;;27.90;43.50;;;;;;4925341;28;45487;-70
2022/05/13 09:55:33;;;;;;;1.52;0.93;;;27.90;43.60;;;;;;4927186;28;45190;-67
2022/05/13 09:58:01;;;;;;;2.30;0.90;;;28.00;43.60;;;;;;4968783;28;45509;-66
2022/05/13 10:00:36;;;;;;;1.50;0.90;;;28.00;43.70;;;;;;4976266;28;45344;-67
2022/05/13 10:03:21;;;;;;;2.33;0.95;;;28.00;43.60;;;;;;4971168;28;45702;-66
2022/05/13 10:06:09;;;;;;;2.25;0.80;;;28.00;43.50;;;;;;4964401;28;45562;-67
2022/05/13 10:08:48;;;;;;;2.13;1.10;;;28.00;43.60;;;;;;4969119;28;44925;-66
2022/05/13 10:14:03;;;;;;;1.45;0.68;;;28.00;43.60;;;;;;4964040;28;45163;-67
2022/05/13 10:16:43;;;;;;;1.80;0.98;;;28.10;43.40;;;;;;4967804;28;45131;-68
2022/05/13 10:19:19;;;;;;;1.67;0.85;;;28.10;43.20;;;;;;4952342;28;45244;-67
2022/05/13 10:22:07;;;;;;;1.65;0.88;;;28.10;43.40;;;;;;4949273;28;45508;-70
2022/05/13 10:24:54;;;;;;;3.42;0.80;;;28.10;43.10;;;;;;4967658;28;45141;-68
2022/05/13 10:27:39;;;;;;;2.70;0.90;;;28.10;43.10;;;;;;4961326;28;45130;-69
2022/05/13 10:30:15;;;;;;;0.90;0.80;;;28.10;43.00;;;;;;4966852;28;45200;-69
2022/05/13 10:33:03;;;;;;;1.40;0.90;;;28.10;42.90;;;;;;4953106;28;45753;-68
2022/05/13 10:35:42;;;;;;;3.92;1.20;;;28.20;42.90;;;;;;4950325;28;44717;-67
2022/05/13 10:38:11;;;;;;;1.20;0.90;;;28.20;43.00;;;;;;4960256;28;45298;-68
2022/05/13 10:40:39;;;;;;;2.33;0.90;;;28.20;42.90;;;;;;4930384;28;46205;-68
2022/05/13 10:43:08;;;;;;;1.77;0.90;;;28.20;42.80;;;;;;4966274;28;45470;-68
2022/05/13 10:45:33;;;;;;;0.80;0.80;;;28.30;43.40;;;;;;4953115;28;45582;-68
2022/05/13 10:48:27;;;;;;;1.02;0.80;;;28.20;42.70;;;;;;4962602;28;45349;-69
2022/05/13 10:51:00;;;;;;;1.50;0.95;;;28.20;42.30;;;;;;4951161;28;45326;-67
2022/05/13 10:53:29;;;;;;;1.85;0.75;;;28.30;42.60;;;;;;4964104;28;45249;-68
2022/05/13 10:56:32;;;;;;;1.40;0.75;;;28.30;42.70;;;;;;4965787;28;46119;-68
2022/05/13 10:59:16;;;;;;;;;;;28.30;42.50;;;;;;4944800;28;45343;-71
2022/05/13 11:02:06;;;;;;;1.05;0.70;;;28.20;42.20;;;;;;4964790;28;46237;-67
2022/05/13 11:04:45;;;;;;;0.93;0.80;;;28.30;42.40;;;;;;4960795;28;45149;-67
2022/05/13 11:07:23;;;;;;;1.42;0.73;;;28.30;42.50;;;;;;4966471;28;45341;-67
2022/05/13 11:10:20;;;;;;;1.42;0.95;;;28.30;42.50;;;;;;4963635;28;45293;-69
2022/05/13 11:12:54;;;;;;;1.05;0.70;;;28.30;42.50;;;;;;4949853;28;45543;-69
2022/05/13 11:15:35;;;;;;;0.60;0.55;;;28.30;42.50;;;;;;4949142;28;46254;-68
2022/05/13 11:18:17;;;;;;;1.13;0.73;;;28.30;42.60;;;;;;4966145;28;45201;-67
2022/05/13 11:20:57;;;;;;;1.00;0.80;;;28.30;42.60;;;;;;4963770;28;45521;-65
2022/05/13 11:25:54;;;;;;;1.85;0.80;;;28.30;42.50;;;;;;4966877;28;45509;-65
2022/05/13 11:27:02;;;;;;;1.23;1.08;;;28.30;42.50;;;;;;4959935;28;46301;-66
2022/05/13 11:29:33;;;;;;;1.30;0.80;;;28.30;42.50;;;;;;4965377;28;45331;-68
2022/05/13 11:32:19;;;;;;;1.10;0.85;;;28.30;42.60;;;;;;4965741;28;45687;-65
2022/05/13 11:35:01;;;;;;;1.35;0.90;;;28.40;42.40;;;;;;4961974;28;45251;-65
2022/05/13 11:37:29;;;;;;;5.00;0.82;;;28.40;42.40;;;;;;4964792;28;47196;-65
2022/05/13 11:39:57;;;;;;;2.50;0.88;;;28.40;42.60;;;;;;4971889;28;45399;-67
2022/05/13 11:42:28;;;;;;;1.17;0.80;;;28.40;42.70;;;;;;4959976;28;45224;-64
2022/05/13 11:45:31;;;;;;;0.93;0.52;;;28.40;42.50;;;;;;4965174;28;45700;-65
2022/05/13 11:48:11;;;;;;;1.30;0.73;;;28.40;42.30;;;;;;4984927;28;46207;-64
2022/05/13 11:50:36;;;;;;;3.35;0.85;;;28.40;42.60;;;;;;4971637;28;46722;-74
2022/05/13 11:53:02;;;;;;;3.67;0.80;;;28.40;42.70;;;;;;4967396;28;45135;-68
2022/05/13 11:55:47;;;;;;;1.42;0.90;;;28.40;42.70;;;;;;4952900;28;45166;-68
2022/05/13 11:58:40;;;;;;;3.85;0.80;;;28.40;42.50;;;;;;4965787;28;46340;-69
2022/05/13 12:01:06;;;;;;;3.08;0.75;;;28.40;42.50;;;;;;4947132;28;46324;-69
2022/05/13 12:03:31;;;;;;;1.27;0.80;;;28.40;42.80;;;;;;4969405;28;44777;-68
2022/05/13 12:06:03;;;;;;;1.48;0.70;;;28.40;42.60;;;;;;4935235;28;45490;-68
2022/05/13 12:08:48;;;;;;;1.02;0.85;;;28.50;42.60;;;;;;4966237;28;46915;-71
2022/05/13 12:11:40;;;;;;;1.63;0.57;;;28.50;42.70;;;;;;4965421;28;45674;-69
2022/05/13 12:14:10;;;;;;;1.30;0.70;;;28.50;42.60;;;;;;4974230;28;45066;-67
2022/05/13 12:17:11;;;;;;;1.15;0.70;;;28.50;42.60;;;;;;4972710;28;46261;-67
2022/05/13 12:19:57;;;;;;;1.20;0.73;;;28.50;42.30;;;;;;4950304;28;45641;-70
2022/05/13 12:22:29;;;;;;;1.52;1.20;;;28.50;42.20;;;;;;4960997;28;44953;-67
2022/05/13 12:25:04;;;;;;;0.57;0.57;;;28.50;42.60;;;;;;4963896;28;45311;-67
2022/05/13 12:27:37;;;;;;;0.57;0.57;;;28.50;42.50;;;;;;4928770;28;45329;-70
2022/05/13 12:30:10;;;;;;;1.02;0.70;;;28.50;42.60;;;;;;4981726;28;45740;-71
2022/05/13 12:32:38;;;;;;;;;;;28.50;42.70;;;;;;4963405;28;45783;-69
2022/05/13 12:37:56;;;;;;;1.63;0.80;;;28.50;42.70;;;;;;4977057;28;45253;-69
2022/05/13 12:40:22;;;;;;;2.22;0.80;;;28.50;42.80;;;;;;4960672;28;45670;-68
2022/05/13 12:42:48;;;;;;;1.98;0.70;;;28.60;41.30;;;;;;4972545;28;45592;-69
2022/05/13 12:45:39;;;;;;;1.33;0.80;;;28.50;39.70;;;;;;4966289;28;45151;-68
2022/05/13 12:48:04;;;;;;;3.92;0.80;;;28.50;36.50;;;;;;4971913;28;45188;-68
2022/05/13 12:50:42;;;;;;;2.60;0.68;;;28.40;38.10;;;;;;4966145;28;45412;-69
2022/05/13 12:53:26;;;;;;;2.88;0.70;;;28.30;36.00;;;;;;4968900;28;45328;-69
2022/05/13 12:55:52;;;;;;;2.25;0.70;;;28.20;35.00;;;;;;4958115;28;46497;-68
2022/05/13 12:58:18;;;;;;;4.97;0.82;;;28.10;36.70;;;;;;4967256;28;45684;-71
2022/05/13 13:00:47;;;;;;;2.03;0.73;;;28.10;36.80;;;;;;4947033;28;47056;-70
2022/05/13 13:03:13;;;;;;;4.25;0.52;;;28.10;36.40;;;;;;4949918;28;45427;-69
2022/05/13 13:05:42;;;;;;;2.03;0.75;;;28.00;36.80;;;;;;4965801;28;45343;-73
2022/05/13 13:08:18;;;;;;;1.20;0.60;;;28.00;36.80;;;;;;4952352;28;44697;-69
2022/05/13 13:10:57;;;;;;;1.63;0.60;;;28.10;36.60;;;;;;4968735;28;45501;-69
2022/05/13 13:13:34;;;;;;;0.95;0.60;;;28.10;36.40;;;;;;4949621;28;45110;-68
2022/05/13 13:16:02;;;;;;;1.67;0.65;;;28.10;36.60;;;;;;4945377;28;46171;-72
2022/05/13 13:18:34;;;;;;;2.78;0.80;;;28.10;37.30;;;;;;4961065;28;44901;-74
2022/05/13 13:21:03;;;;;;;3.15;0.68;;;28.10;36.90;;;;;;4966712;28;46278;-70
2022/05/13 13:23:33;;;;;;;1.40;0.60;;;28.10;37.50;;;;;;4940595;28;45344;-68
2022/05/13 13:25:59;;;;;;;2.33;0.60;;;28.10;37.60;;;;;;4938171;28;45248;-69
2022/05/13 13:28:35;;;;;;;1.35;0.50;;;28.10;37.70;;;;;;4965848;28;45260;-67
2022/05/13 13:31:03;;;;;;;3.63;0.60;;;28.10;37.40;;;;;;4964417;28;45411;-67
2022/05/13 13:33:34;;;;;;;3.10;0.50;;;28.10;37.80;;;;;;4945817;28;45210;-68
2022/05/13 13:36:08;;;;;;;1.45;0.63;;;28.10;37.80;;;;;;4969576;28;44832;-68
2022/05/13 13:38:34;;;;;;;2.47;0.60;;;28.20;37.60;;;;;;4967275;28;45084;-69
2022/05/13 13:40:59;;;;;;;1.85;0.60;;;28.20;38.10;;;;;;4939422;28;46878;-68
2022/05/13 13:43:27;;;;;;;2.33;0.73;;;28.20;38.20;;;;;;4934764;28;45165;-72
2022/05/13 13:46:07;;;;;;;0.80;0.45;;;28.20;38.30;;;;;;4965708;28;44993;-69
2022/05/13 13:48:40;;;;;;;1.55;0.55;;;28.20;38.30;;;;;;4951866;28;46064;-70
2022/05/13 13:51:06;;;;;;;2.42;0.50;;;28.20;38.40;;;;;;4939582;28;46852;-68
2022/05/13 13:53:38;;;;;;;2.22;0.77;;;28.20;38.50;;;;;;4949787;28;45393;-68
2022/05/13 13:56:09;;;;;;;1.08;0.60;;;28.20;38.50;;;;;;4968468;28;45720;-68
2022/05/13 13:58:43;;;;;;;2.25;0.68;;;28.30;38.50;;;;;;4942248;28;45310;-70
2022/05/13 14:01:14;;;;;;;1.40;0.63;;;28.30;38.40;;;;;;4936809;28;45563;-70
2022/05/13 14:03:39;;;;;;;1.73;0.50;;;28.30;38.70;;;;;;4958767;28;45176;-71
2022/05/13 14:06:06;;;;;;;2.03;0.43;;;28.30;38.90;;;;;;4931647;28;45509;-62
2022/05/13 14:08:36;;;;;;;1.10;0.40;;;28.30;38.90;;;;;;4944942;28;45221;-62
2022/05/13 14:11:10;;;;;;;1.58;0.50;;;28.30;38.80;;;;;;4969724;28;47380;-62
2022/05/13 14:13:44;;;;;;;1.90;0.70;;;28.40;38.80;;;;;;4966851;28;45292;-61
2022/05/13 14:16:20;;;;;;;0.55;0.50;;;28.40;39.00;;;;;;4966081;28;46443;-61
2022/05/13 14:18:47;;;;;;;1.48;0.70;;;28.40;38.90;;;;;;4949161;28;45288;-60
2022/05/13 14:21:20;;;;;;;2.38;0.60;;;28.40;39.20;;;;;;4934416;28;45498;-60
2022/05/13 14:23:59;;;;;;;4.13;0.93;;;28.40;39.20;;;;;;4965095;28;45306;-61
2022/05/13 14:26:25;;;;;;;2.47;0.75;;;28.40;39.10;;;;;;4965942;28;44798;-61
2022/05/13 14:28:51;;;;;;;1.75;0.52;;;28.40;39.30;;;;;;4942279;28;45510;-61
2022/05/13 14:31:33;;;;;;;2.45;0.60;;;28.40;39.30;;;;;;4966185;28;46268;-60
2022/05/13 14:33:59;;;;;;;2.78;0.63;;;28.40;39.20;;;;;;4965871;28;45106;-60
2022/05/13 14:36:55;;;;;;;1.60;0.52;;;28.40;39.40;;;;;;4969061;28;45487;-60
2022/05/13 14:42:37;;;;;;;1.17;0.63;;;28.40;39.50;;;;;;4961721;28;46163;-61
2022/05/13 14:45:22;;;;;;;1.20;0.52;;;28.40;39.40;;;;;;4964828;28;45037;-61
2022/05/13 14:47:49;;;;;;;1.17;0.50;;;28.40;39.30;;;;;;4943459;28;45567;-61
2022/05/13 14:50:33;;;;;;;4.95;0.60;;;28.40;39.50;;;;;;4967859;28;45285;-61
2022/05/13 14:52:59;;;;;;;6.50;0.70;;;28.40;39.20;;;;;;4938424;28;45587;-61
2022/05/13 14:55:35;;;;;;;1.15;0.60;;;28.40;39.50;;;;;;4948524;28;44956;-61
2022/05/13 14:58:02;;;;;;;1.35;0.50;;;28.40;39.50;;;;;;4960022;28;45029;-60
2022/05/13 15:00:31;;;;;;;2.55;0.75;;;28.40;39.60;;;;;;4929328;28;45390;-61
2022/05/13 15:02:58;;;;;;;1.83;0.60;;;28.40;39.60;;;;;;4965696;28;45089;-60
2022/05/13 15:05:40;;;;;;;1.85;0.60;;;28.40;39.70;;;;;;4945928;28;45618;-61
2022/05/13 15:08:34;;;;;;;1.00;0.68;;;28.40;40.30;;;;;;4954269;28;45467;-59
2022/05/13 15:11:00;;;;;;;1.67;0.68;;;28.40;40.10;;;;;;4938836;28;45548;-61
2022/05/13 15:13:25;;;;;;;5.95;0.80;;;28.40;39.80;;;;;;4959004;28;45563;-59
2022/05/13 15:15:52;;;;;;;3.65;0.65;;;28.40;39.80;;;;;;4960102;28;45510;-61
2022/05/13 15:18:17;;;;;;;1.50;0.60;;;28.40;39.80;;;;;;4963156;28;45271;-60
2022/05/13 15:20:43;;;;;;;1.55;0.40;;;28.40;39.80;;;;;;4962336;28;45813;-61
2022/05/13 15:23:09;;;;;;;2.40;0.88;;;28.40;39.80;;;;;;4960599;28;45956;-61
2022/05/13 15:25:41;;;;;;;0.50;0.43;;;28.40;39.80;;;;;;4956403;28;45078;-61
2022/05/13 15:28:06;;;;;;;1.05;0.65;;;28.40;39.80;;;;;;4951363;28;45184;-61
2022/05/13 15:30:32;;;;;;;3.60;0.70;;;28.40;39.80;;;;;;4952122;28;44938;-61
2022/05/13 15:32:57;;;;;;;1.25;0.82;;;28.40;39.80;;;;;;4962039;28;45456;-60
2022/05/13 15:35:23;;;;;;;1.70;0.70;;;28.40;39.80;;;;;;4958748;28;45680;-61
2022/05/13 15:37:51;;;;;;;3.25;0.68;;;28.40;39.80;;;;;;4963003;28;44863;-61
2022/05/13 15:40:16;;;;;;;1.88;0.60;;;28.40;39.90;;;;;;4959317;28;45383;-61
2022/05/13 15:42:42;;;;;;;2.15;0.68;;;28.40;39.80;;;;;;4957114;28;46269;-61
2022/05/13 15:45:08;;;;;;;2.55;1.10;;;28.40;39.90;;;;;;4968391;28;45213;-61
2022/05/13 15:47:34;;;;;;;1.05;0.60;;;28.40;39.90;;;;;;4965307;28;45444;-61
2022/05/13 15:52:45;;;;;;;4.22;0.60;;;28.40;40.00;;;;;;4962575;28;46675;-61
2022/05/13 15:55:24;;;;;;;2.25;0.80;;;28.40;40.00;;;;;;4959913;28;44961;-61
2022/05/13 15:57:55;;;;;;;3.28;0.40;;;28.40;39.80;;;;;;4958398;28;45401;-60
2022/05/13 16:00:21;;;;;;;2.13;0.60;;;28.40;39.90;;;;;;4932839;28;45600;-61
2022/05/13 16:02:48;;;;;;;3.83;1.00;;;28.40;40.00;;;;;;4963451;28;46396;-62
2022/05/13 16:05:16;;;;;;;2.17;0.50;;;28.40;40.00;;;;;;4957959;28;45231;-61
2022/05/13 16:07:42;;;;;;;1.27;0.60;;;28.50;40.00;;;;;;4966046;28;44736;-62
2022/05/13 16:10:08;;;;;;;2.40;0.60;;;28.40;40.00;;;;;;4964472;28;45364;-62
2022/05/13 16:12:35;;;;;;;4.57;0.60;;;28.50;40.10;;;;;;4959503;28;46158;-65
2022/05/13 16:15:04;;;;;;;1.02;0.52;;;28.50;40.10;;;;;;4946574;28;45128;-62
2022/05/13 16:17:30;;;;;;;1.55;0.60;;;28.40;39.90;;;;;;4959403;28;45248;-62
2022/05/13 16:19:57;;;;;;;1.02;0.40;;;28.50;40.00;;;;;;4966800;28;45078;-62
2022/05/13 16:22:23;;;;;;;2.40;0.60;;;28.40;40.00;;;;;;4967545;28;46203;-59
2022/05/13 16:24:48;;;;;;;1.55;0.63;;;28.50;40.20;;;;;;4946861;28;45154;-62
2022/05/13 16:27:16;;;;;;;4.18;1.33;;;28.50;40.20;;;;;;4968536;28;45210;-62
2022/05/13 16:29:42;;;;;;;1.42;0.55;;;28.40;40.10;;;;;;4968196;28;45199;-62
2022/05/13 16:32:07;;;;;;;4.97;0.85;;;28.50;40.30;;;;;;4963658;28;45494;-61
2022/05/13 16:34:34;;;;;;;0.93;0.55;;;28.40;40.20;;;;;;4976846;28;45366;-60
2022/05/13 16:39:44;;;;;;;5.97;1.00;;;28.40;41.00;;;;;;4957092;28;44642;-60